sensor_id;sensor_type;location;lat;lon;timestamp;temperature;humidity
43651;DHT22;29247;50.944;5.382;2023-07-16T00:01:10;21.50;84.80
43651;DHT22;29247;50.944;5.382;2023-07-16T00:03:39;21.50;84.70
43651;DHT22;29247;50.944;5.382;2023-07-16T00:06:04;21.40;84.50
43651;DHT22;29247;50.944;5.382;2023-07-16T00:08:32;21.40;84.20
43651;DHT22;29247;50.944;5.382;2023-07-16T00:10:58;21.30;84.00
43651;DHT22;29247;50.944;5.382;2023-07-16T00:13:28;21.30;83.80
43651;DHT22;29247;50.944;5.382;2023-07-16T00:15:56;21.20;83.80
43651;DHT22;29247;50.944;5.382;2023-07-16T00:18:22;21.20;83.80
43651;DHT22;29247;50.944;5.382;2023-07-16T00:20:49;21.10;83.70
43651;DHT22;29247;50.944;5.382;2023-07-16T00:23:15;21.10;83.90
43651;DHT22;29247;50.944;5.382;2023-07-16T00:25:41;21.10;83.80
43651;DHT22;29247;50.944;5.382;2023-07-16T00:28:06;21.00;83.90
43651;DHT22;29247;50.944;5.382;2023-07-16T00:30:32;21.00;84.00
43651;DHT22;29247;50.944;5.382;2023-07-16T00:32:57;21.00;83.90
43651;DHT22;29247;50.944;5.382;2023-07-16T00:35:28;20.90;83.50
43651;DHT22;29247;50.944;5.382;2023-07-16T00:37:58;20.80;83.60
43651;DHT22;29247;50.944;5.382;2023-07-16T00:40:24;20.80;84.40
43651;DHT22;29247;50.944;5.382;2023-07-16T00:42:49;20.80;83.80
43651;DHT22;29247;50.944;5.382;2023-07-16T00:45:15;20.70;83.70
43651;DHT22;29247;50.944;5.382;2023-07-16T00:47:42;20.70;84.60
43651;DHT22;29247;50.944;5.382;2023-07-16T00:50:11;20.70;84.00
43651;DHT22;29247;50.944;5.382;2023-07-16T00:52:40;20.60;84.00
43651;DHT22;29247;50.944;5.382;2023-07-16T00:55:06;20.60;84.10
43651;DHT22;29247;50.944;5.382;2023-07-16T00:57:33;20.50;84.20
43651;DHT22;29247;50.944;5.382;2023-07-16T01:00:02;20.50;84.30
43651;DHT22;29247;50.944;5.382;2023-07-16T01:02:28;20.50;84.50
43651;DHT22;29247;50.944;5.382;2023-07-16T01:04:54;20.50;84.70
43651;DHT22;29247;50.944;5.382;2023-07-16T01:07:23;20.40;84.70
43651;DHT22;29247;50.944;5.382;2023-07-16T01:09:50;20.50;85.00
43651;DHT22;29247;50.944;5.382;2023-07-16T01:12:17;20.50;85.20
43651;DHT22;29247;50.944;5.382;2023-07-16T01:14:45;20.50;85.30
43651;DHT22;29247;50.944;5.382;2023-07-16T01:17:15;20.40;85.20
43651;DHT22;29247;50.944;5.382;2023-07-16T01:19:41;20.40;85.20
43651;DHT22;29247;50.944;5.382;2023-07-16T01:29:59;20.40;85.10
43651;DHT22;29247;50.944;5.382;2023-07-16T01:32:28;20.30;85.10
43651;DHT22;29247;50.944;5.382;2023-07-16T01:34:55;20.30;85.30
43651;DHT22;29247;50.944;5.382;2023-07-16T01:37:22;20.30;85.50
43651;DHT22;29247;50.944;5.382;2023-07-16T01:39:50;20.30;85.60
43651;DHT22;29247;50.944;5.382;2023-07-16T01:42:18;20.30;85.60
43651;DHT22;29247;50.944;5.382;2023-07-16T01:44:44;20.20;85.70
43651;DHT22;29247;50.944;5.382;2023-07-16T01:49:53;20.20;86.00
43651;DHT22;29247;50.944;5.382;2023-07-16T01:52:21;20.20;86.00
43651;DHT22;29247;50.944;5.382;2023-07-16T01:54:47;20.20;86.10
43651;DHT22;29247;50.944;5.382;2023-07-16T01:57:16;20.20;86.20
43651;DHT22;29247;50.944;5.382;2023-07-16T01:59:41;20.20;86.20
43651;DHT22;29247;50.944;5.382;2023-07-16T02:02:07;20.10;86.20
43651;DHT22;29247;50.944;5.382;2023-07-16T02:04:35;20.10;86.20
43651;DHT22;29247;50.944;5.382;2023-07-16T02:07:00;20.10;86.10
43651;DHT22;29247;50.944;5.382;2023-07-16T02:09:26;20.10;86.20
43651;DHT22;29247;50.944;5.382;2023-07-16T02:11:54;20.10;86.20
43651;DHT22;29247;50.944;5.382;2023-07-16T02:14:20;20.10;86.20
43651;DHT22;29247;50.944;5.382;2023-07-16T02:16:45;20.00;86.10
43651;DHT22;29247;50.944;5.382;2023-07-16T02:19:11;20.00;86.00
43651;DHT22;29247;50.944;5.382;2023-07-16T02:21:39;20.00;85.80
43651;DHT22;29247;50.944;5.382;2023-07-16T02:24:05;19.90;86.00
43651;DHT22;29247;50.944;5.382;2023-07-16T02:26:33;19.90;85.90
43651;DHT22;29247;50.944;5.382;2023-07-16T02:29:02;19.90;85.90
43651;DHT22;29247;50.944;5.382;2023-07-16T02:31:28;19.80;85.50
43651;DHT22;29247;50.944;5.382;2023-07-16T02:33:54;19.80;85.50
43651;DHT22;29247;50.944;5.382;2023-07-16T02:36:19;19.80;85.60
43651;DHT22;29247;50.944;5.382;2023-07-16T02:38:45;19.70;85.40
43651;DHT22;29247;50.944;5.382;2023-07-16T02:41:11;19.70;85.30
43651;DHT22;29247;50.944;5.382;2023-07-16T02:43:36;19.70;85.10
43651;DHT22;29247;50.944;5.382;2023-07-16T02:46:02;19.60;84.80
43651;DHT22;29247;50.944;5.382;2023-07-16T02:48:28;19.60;84.70
43651;DHT22;29247;50.944;5.382;2023-07-16T02:50:54;19.50;84.50
43651;DHT22;29247;50.944;5.382;2023-07-16T02:53:19;19.50;84.50
43651;DHT22;29247;50.944;5.382;2023-07-16T02:55:45;19.40;84.30
43651;DHT22;29247;50.944;5.382;2023-07-16T02:58:12;19.40;84.00
43651;DHT22;29247;50.944;5.382;2023-07-16T03:00:39;19.30;84.00
43651;DHT22;29247;50.944;5.382;2023-07-16T03:03:05;19.30;83.90
43651;DHT22;29247;50.944;5.382;2023-07-16T03:05:31;19.30;83.70
43651;DHT22;29247;50.944;5.382;2023-07-16T03:07:56;19.20;83.80
43651;DHT22;29247;50.944;5.382;2023-07-16T03:10:24;19.20;83.80
43651;DHT22;29247;50.944;5.382;2023-07-16T03:12:55;19.10;83.80
43651;DHT22;29247;50.944;5.382;2023-07-16T03:15:21;19.10;83.70
43651;DHT22;29247;50.944;5.382;2023-07-16T03:17:46;19.10;83.90
43651;DHT22;29247;50.944;5.382;2023-07-16T03:20:12;19.10;83.90
43651;DHT22;29247;50.944;5.382;2023-07-16T03:22:38;19.10;84.00
43651;DHT22;29247;50.944;5.382;2023-07-16T03:25:07;19.00;84.10
43651;DHT22;29247;50.944;5.382;2023-07-16T03:27:32;19.00;83.90
43651;DHT22;29247;50.944;5.382;2023-07-16T03:29:58;19.00;83.90
43651;DHT22;29247;50.944;5.382;2023-07-16T03:32:26;18.90;84.00
43651;DHT22;29247;50.944;5.382;2023-07-16T03:34:52;18.90;84.00
43651;DHT22;29247;50.944;5.382;2023-07-16T03:37:18;18.90;83.90
43651;DHT22;29247;50.944;5.382;2023-07-16T03:39:44;18.90;83.80
43651;DHT22;29247;50.944;5.382;2023-07-16T03:42:11;18.80;83.70
43651;DHT22;29247;50.944;5.382;2023-07-16T03:44:39;18.80;83.80
43651;DHT22;29247;50.944;5.382;2023-07-16T03:47:07;18.80;83.80
43651;DHT22;29247;50.944;5.382;2023-07-16T03:49:33;18.80;83.80
43651;DHT22;29247;50.944;5.382;2023-07-16T03:51:59;18.80;83.90
43651;DHT22;29247;50.944;5.382;2023-07-16T03:54:27;18.80;83.90
43651;DHT22;29247;50.944;5.382;2023-07-16T03:56:52;18.70;83.70
43651;DHT22;29247;50.944;5.382;2023-07-16T03:59:20;18.70;83.70
43651;DHT22;29247;50.944;5.382;2023-07-16T04:01:46;18.70;83.70
43651;DHT22;29247;50.944;5.382;2023-07-16T04:04:12;18.70;83.80
43651;DHT22;29247;50.944;5.382;2023-07-16T04:06:42;18.70;83.90
43651;DHT22;29247;50.944;5.382;2023-07-16T04:09:10;18.60;83.80
43651;DHT22;29247;50.944;5.382;2023-07-16T04:11:38;18.60;83.80
43651;DHT22;29247;50.944;5.382;2023-07-16T04:14:06;18.60;83.80
43651;DHT22;29247;50.944;5.382;2023-07-16T04:16:34;18.60;83.90
43651;DHT22;29247;50.944;5.382;2023-07-16T04:19:00;18.60;83.90
43651;DHT22;29247;50.944;5.382;2023-07-16T04:21:25;18.60;84.00
43651;DHT22;29247;50.944;5.382;2023-07-16T04:23:51;18.60;83.90
43651;DHT22;29247;50.944;5.382;2023-07-16T04:26:16;18.60;84.00
43651;DHT22;29247;50.944;5.382;2023-07-16T04:28:45;18.50;83.90
43651;DHT22;29247;50.944;5.382;2023-07-16T04:31:10;18.50;83.80
43651;DHT22;29247;50.944;5.382;2023-07-16T04:33:36;18.50;83.80
43651;DHT22;29247;50.944;5.382;2023-07-16T04:36:04;18.50;83.70
43651;DHT22;29247;50.944;5.382;2023-07-16T04:38:32;18.50;83.60
43651;DHT22;29247;50.944;5.382;2023-07-16T04:41:02;18.50;83.50
43651;DHT22;29247;50.944;5.382;2023-07-16T04:43:30;18.50;83.20
43651;DHT22;29247;50.944;5.382;2023-07-16T04:45:55;18.50;83.30
43651;DHT22;29247;50.944;5.382;2023-07-16T04:48:21;18.50;83.40
43651;DHT22;29247;50.944;5.382;2023-07-16T04:50:46;18.50;83.30
43651;DHT22;29247;50.944;5.382;2023-07-16T04:53:12;18.40;83.30
43651;DHT22;29247;50.944;5.382;2023-07-16T04:55:39;18.50;83.20
43651;DHT22;29247;50.944;5.382;2023-07-16T04:58:11;18.50;83.10
43651;DHT22;29247;50.944;5.382;2023-07-16T05:00:37;18.50;83.10
43651;DHT22;29247;50.944;5.382;2023-07-16T05:03:03;18.50;83.00
43651;DHT22;29247;50.944;5.382;2023-07-16T05:05:29;18.50;83.00
43651;DHT22;29247;50.944;5.382;2023-07-16T05:07:54;18.50;82.90
43651;DHT22;29247;50.944;5.382;2023-07-16T05:10:23;18.50;82.60
43651;DHT22;29247;50.944;5.382;2023-07-16T05:12:49;18.40;82.40
43651;DHT22;29247;50.944;5.382;2023-07-16T05:15:17;18.50;82.40
43651;DHT22;29247;50.944;5.382;2023-07-16T05:17:43;18.50;82.30
43651;DHT22;29247;50.944;5.382;2023-07-16T05:20:09;18.50;82.10
43651;DHT22;29247;50.944;5.382;2023-07-16T05:22:35;18.50;82.10
43651;DHT22;29247;50.944;5.382;2023-07-16T05:25:01;18.40;82.00
43651;DHT22;29247;50.944;5.382;2023-07-16T05:27:31;18.50;81.90
43651;DHT22;29247;50.944;5.382;2023-07-16T05:29:59;18.50;81.60
43651;DHT22;29247;50.944;5.382;2023-07-16T05:32:25;18.40;81.40
43651;DHT22;29247;50.944;5.382;2023-07-16T05:34:50;18.50;81.60
43651;DHT22;29247;50.944;5.382;2023-07-16T05:37:16;18.50;81.40
43651;DHT22;29247;50.944;5.382;2023-07-16T05:39:44;18.50;81.30
43651;DHT22;29247;50.944;5.382;2023-07-16T05:42:12;18.50;81.20
43651;DHT22;29247;50.944;5.382;2023-07-16T05:44:40;18.50;81.10
43651;DHT22;29247;50.944;5.382;2023-07-16T05:47:07;18.50;80.60
43651;DHT22;29247;50.944;5.382;2023-07-16T05:49:35;18.50;80.70
43651;DHT22;29247;50.944;5.382;2023-07-16T05:52:04;18.50;80.50
43651;DHT22;29247;50.944;5.382;2023-07-16T05:54:29;18.50;80.40
43651;DHT22;29247;50.944;5.382;2023-07-16T05:56:57;18.50;80.30
43651;DHT22;29247;50.944;5.382;2023-07-16T05:59:26;18.50;80.30
43651;DHT22;29247;50.944;5.382;2023-07-16T06:01:51;18.50;80.40
43651;DHT22;29247;50.944;5.382;2023-07-16T06:04:17;18.60;80.30
43651;DHT22;29247;50.944;5.382;2023-07-16T06:06:45;18.60;80.10
43651;DHT22;29247;50.944;5.382;2023-07-16T06:09:11;18.60;79.90
43651;DHT22;29247;50.944;5.382;2023-07-16T06:11:36;18.60;79.80
43651;DHT22;29247;50.944;5.382;2023-07-16T06:14:02;18.60;79.50
43651;DHT22;29247;50.944;5.382;2023-07-16T06:16:27;18.60;79.20
43651;DHT22;29247;50.944;5.382;2023-07-16T06:18:56;18.60;79.00
43651;DHT22;29247;50.944;5.382;2023-07-16T06:21:21;18.70;78.90
43651;DHT22;29247;50.944;5.382;2023-07-16T06:23:47;18.70;78.90
43651;DHT22;29247;50.944;5.382;2023-07-16T06:26:13;18.70;78.70
43651;DHT22;29247;50.944;5.382;2023-07-16T06:28:38;18.70;78.70
43651;DHT22;29247;50.944;5.382;2023-07-16T06:31:10;18.80;78.70
43651;DHT22;29247;50.944;5.382;2023-07-16T06:33:36;18.80;78.60
43651;DHT22;29247;50.944;5.382;2023-07-16T06:36:01;18.80;79.20
43651;DHT22;29247;50.944;5.382;2023-07-16T06:38:27;18.80;78.40
43651;DHT22;29247;50.944;5.382;2023-07-16T06:40:53;18.90;78.40
43651;DHT22;29247;50.944;5.382;2023-07-16T06:43:19;18.90;78.40
43651;DHT22;29247;50.944;5.382;2023-07-16T06:45:45;18.90;78.20
43651;DHT22;29247;50.944;5.382;2023-07-16T06:48:10;19.00;78.10
43651;DHT22;29247;50.944;5.382;2023-07-16T06:50:38;19.00;77.70
43651;DHT22;29247;50.944;5.382;2023-07-16T06:53:07;19.00;77.50
43651;DHT22;29247;50.944;5.382;2023-07-16T06:55:36;19.10;77.30
43651;DHT22;29247;50.944;5.382;2023-07-16T06:58:02;19.10;77.40
43651;DHT22;29247;50.944;5.382;2023-07-16T07:00:28;19.20;77.50
43651;DHT22;29247;50.944;5.382;2023-07-16T07:02:56;19.30;77.40
43651;DHT22;29247;50.944;5.382;2023-07-16T07:05:22;19.50;77.20
43651;DHT22;29247;50.944;5.382;2023-07-16T07:07:48;19.60;76.90
43651;DHT22;29247;50.944;5.382;2023-07-16T07:10:16;19.80;76.60
43651;DHT22;29247;50.944;5.382;2023-07-16T07:12:44;20.10;76.80
43651;DHT22;29247;50.944;5.382;2023-07-16T07:15:10;20.50;75.90
43651;DHT22;29247;50.944;5.382;2023-07-16T07:17:40;21.00;75.10
43651;DHT22;29247;50.944;5.382;2023-07-16T07:20:08;21.50;73.10
43651;DHT22;29247;50.944;5.382;2023-07-16T07:22:34;21.90;71.20
43651;DHT22;29247;50.944;5.382;2023-07-16T07:24:59;22.40;69.60
43651;DHT22;29247;50.944;5.382;2023-07-16T07:27:30;22.70;68.10
43651;DHT22;29247;50.944;5.382;2023-07-16T07:29:59;22.90;66.80
43651;DHT22;29247;50.944;5.382;2023-07-16T07:32:29;23.00;65.80
43651;DHT22;29247;50.944;5.382;2023-07-16T07:34:55;23.10;65.60
43651;DHT22;29247;50.944;5.382;2023-07-16T07:37:20;23.10;64.30
43651;DHT22;29247;50.944;5.382;2023-07-16T07:39:52;23.00;64.40
43651;DHT22;29247;50.944;5.382;2023-07-16T07:42:20;23.00;64.10
43651;DHT22;29247;50.944;5.382;2023-07-16T07:44:46;23.00;64.30
43651;DHT22;29247;50.944;5.382;2023-07-16T07:47:13;23.00;63.90
43651;DHT22;29247;50.944;5.382;2023-07-16T07:49:39;23.00;63.10
43651;DHT22;29247;50.944;5.382;2023-07-16T07:52:05;22.90;62.90
43651;DHT22;29247;50.944;5.382;2023-07-16T07:54:33;22.90;63.70
43651;DHT22;29247;50.944;5.382;2023-07-16T07:57:01;22.90;63.50
43651;DHT22;29247;50.944;5.382;2023-07-16T07:59:29;22.80;63.40
43651;DHT22;29247;50.944;5.382;2023-07-16T08:01:55;22.90;63.90
43651;DHT22;29247;50.944;5.382;2023-07-16T08:04:21;22.90;64.10
43651;DHT22;29247;50.944;5.382;2023-07-16T08:06:46;22.90;63.40
43651;DHT22;29247;50.944;5.382;2023-07-16T08:09:12;22.90;63.40
43651;DHT22;29247;50.944;5.382;2023-07-16T08:11:37;22.90;63.70
43651;DHT22;29247;50.944;5.382;2023-07-16T08:14:06;22.90;64.10
43651;DHT22;29247;50.944;5.382;2023-07-16T08:16:34;23.00;63.80
43651;DHT22;29247;50.944;5.382;2023-07-16T08:19:02;23.00;63.60
43651;DHT22;29247;50.944;5.382;2023-07-16T08:21:28;23.00;63.20
43651;DHT22;29247;50.944;5.382;2023-07-16T08:23:56;23.00;63.10
43651;DHT22;29247;50.944;5.382;2023-07-16T08:26:22;23.00;63.10
43651;DHT22;29247;50.944;5.382;2023-07-16T08:28:47;23.10;62.30
43651;DHT22;29247;50.944;5.382;2023-07-16T08:31:13;23.10;62.20
43651;DHT22;29247;50.944;5.382;2023-07-16T08:33:39;23.10;62.30
43651;DHT22;29247;50.944;5.382;2023-07-16T08:36:05;23.10;62.30
43651;DHT22;29247;50.944;5.382;2023-07-16T08:38:33;23.10;61.70
43651;DHT22;29247;50.944;5.382;2023-07-16T08:41:00;23.10;61.80
43651;DHT22;29247;50.944;5.382;2023-07-16T08:43:26;23.20;61.80
43651;DHT22;29247;50.944;5.382;2023-07-16T08:45:53;23.20;62.00
43651;DHT22;29247;50.944;5.382;2023-07-16T08:48:22;23.30;61.60
43651;DHT22;29247;50.944;5.382;2023-07-16T08:50:51;23.30;61.70
43651;DHT22;29247;50.944;5.382;2023-07-16T08:53:17;23.30;61.90
43651;DHT22;29247;50.944;5.382;2023-07-16T08:55:46;23.40;62.20
43651;DHT22;29247;50.944;5.382;2023-07-16T08:58:14;23.50;61.80
43651;DHT22;29247;50.944;5.382;2023-07-16T09:00:44;23.50;61.00
43651;DHT22;29247;50.944;5.382;2023-07-16T09:03:14;23.60;60.10
43651;DHT22;29247;50.944;5.382;2023-07-16T09:05:42;23.50;59.70
43651;DHT22;29247;50.944;5.382;2023-07-16T09:08:07;23.50;60.10
43651;DHT22;29247;50.944;5.382;2023-07-16T09:10:34;23.60;60.50
43651;DHT22;29247;50.944;5.382;2023-07-16T09:12:59;23.60;60.90
43651;DHT22;29247;50.944;5.382;2023-07-16T09:15:27;23.70;60.70
43651;DHT22;29247;50.944;5.382;2023-07-16T09:17:54;23.80;60.10
43651;DHT22;29247;50.944;5.382;2023-07-16T09:20:20;23.90;59.90
43651;DHT22;29247;50.944;5.382;2023-07-16T09:22:47;23.90;59.90
43651;DHT22;29247;50.944;5.382;2023-07-16T09:25:13;24.00;59.20
43651;DHT22;29247;50.944;5.382;2023-07-16T09:27:39;24.00;59.00
43651;DHT22;29247;50.944;5.382;2023-07-16T09:30:14;24.00;58.30
43651;DHT22;29247;50.944;5.382;2023-07-16T09:32:40;24.00;58.20
43651;DHT22;29247;50.944;5.382;2023-07-16T09:35:16;24.00;58.30
43651;DHT22;29247;50.944;5.382;2023-07-16T09:37:43;24.00;58.30
43651;DHT22;29247;50.944;5.382;2023-07-16T09:40:10;24.10;58.20
43651;DHT22;29247;50.944;5.382;2023-07-16T09:42:45;24.10;58.00
43651;DHT22;29247;50.944;5.382;2023-07-16T09:45:17;24.00;57.50
43651;DHT22;29247;50.944;5.382;2023-07-16T09:47:43;23.90;57.70
43651;DHT22;29247;50.944;5.382;2023-07-16T09:50:12;23.90;58.20
43651;DHT22;29247;50.944;5.382;2023-07-16T09:52:38;23.90;57.60
43651;DHT22;29247;50.944;5.382;2023-07-16T09:55:09;23.90;58.00
43651;DHT22;29247;50.944;5.382;2023-07-16T09:57:41;23.80;57.60
43651;DHT22;29247;50.944;5.382;2023-07-16T10:00:09;23.70;57.40
43651;DHT22;29247;50.944;5.382;2023-07-16T10:02:39;23.70;58.20
43651;DHT22;29247;50.944;5.382;2023-07-16T10:05:28;23.70;58.60
43651;DHT22;29247;50.944;5.382;2023-07-16T10:08:00;23.70;58.50
43651;DHT22;29247;50.944;5.382;2023-07-16T10:13:16;23.70;58.00
43651;DHT22;29247;50.944;5.382;2023-07-16T10:15:56;23.70;57.60
43651;DHT22;29247;50.944;5.382;2023-07-16T10:20:51;23.60;58.30
43651;DHT22;29247;50.944;5.382;2023-07-16T10:23:18;23.60;58.50
43651;DHT22;29247;50.944;5.382;2023-07-16T10:26:01;23.60;58.80
43651;DHT22;29247;50.944;5.382;2023-07-16T10:28:33;23.60;58.30
43651;DHT22;29247;50.944;5.382;2023-07-16T10:30:59;23.60;57.50
43651;DHT22;29247;50.944;5.382;2023-07-16T10:33:24;23.60;57.70
43651;DHT22;29247;50.944;5.382;2023-07-16T10:35:50;23.70;58.00
43651;DHT22;29247;50.944;5.382;2023-07-16T10:38:16;23.60;58.20
43651;DHT22;29247;50.944;5.382;2023-07-16T10:40:43;23.60;58.10
43651;DHT22;29247;50.944;5.382;2023-07-16T10:43:10;23.60;57.90
43651;DHT22;29247;50.944;5.382;2023-07-16T10:45:38;23.60;58.10
43651;DHT22;29247;50.944;5.382;2023-07-16T10:48:06;23.60;58.40
43651;DHT22;29247;50.944;5.382;2023-07-16T10:50:33;23.50;57.90
43651;DHT22;29247;50.944;5.382;2023-07-16T10:53:01;23.50;57.70
43651;DHT22;29247;50.944;5.382;2023-07-16T10:55:28;23.40;57.90
43651;DHT22;29247;50.944;5.382;2023-07-16T10:57:54;23.40;58.50
43651;DHT22;29247;50.944;5.382;2023-07-16T11:00:21;23.50;58.40
43651;DHT22;29247;50.944;5.382;2023-07-16T11:02:51;23.50;58.50
43651;DHT22;29247;50.944;5.382;2023-07-16T11:05:20;23.60;58.50
43651;DHT22;29247;50.944;5.382;2023-07-16T11:07:46;23.60;58.00
43651;DHT22;29247;50.944;5.382;2023-07-16T11:10:14;23.50;57.90
43651;DHT22;29247;50.944;5.382;2023-07-16T11:12:41;23.50;57.80
43651;DHT22;29247;50.944;5.382;2023-07-16T11:15:10;23.50;57.70
43651;DHT22;29247;50.944;5.382;2023-07-16T11:17:40;23.40;57.80
43651;DHT22;29247;50.944;5.382;2023-07-16T11:20:09;23.40;57.80
43651;DHT22;29247;50.944;5.382;2023-07-16T11:22:38;23.40;58.00
43651;DHT22;29247;50.944;5.382;2023-07-16T11:25:08;23.40;58.10
43651;DHT22;29247;50.944;5.382;2023-07-16T11:27:36;23.40;58.30
43651;DHT22;29247;50.944;5.382;2023-07-16T11:30:01;23.40;58.20
43651;DHT22;29247;50.944;5.382;2023-07-16T11:32:35;23.40;58.00
43651;DHT22;29247;50.944;5.382;2023-07-16T11:35:05;23.40;57.90
43651;DHT22;29247;50.944;5.382;2023-07-16T11:37:33;23.50;58.00
43651;DHT22;29247;50.944;5.382;2023-07-16T11:40:04;23.50;58.00
43651;DHT22;29247;50.944;5.382;2023-07-16T11:42:32;23.50;57.70
43651;DHT22;29247;50.944;5.382;2023-07-16T11:45:00;23.50;57.60
43651;DHT22;29247;50.944;5.382;2023-07-16T11:47:27;23.50;57.70
43651;DHT22;29247;50.944;5.382;2023-07-16T11:49:56;23.60;58.40
43651;DHT22;29247;50.944;5.382;2023-07-16T11:52:29;23.70;58.40
43651;DHT22;29247;50.944;5.382;2023-07-16T11:54:58;23.80;57.70
43651;DHT22;29247;50.944;5.382;2023-07-16T11:57:29;23.90;57.00
43651;DHT22;29247;50.944;5.382;2023-07-16T11:59:55;23.90;56.60
43651;DHT22;29247;50.944;5.382;2023-07-16T12:02:21;23.90;57.00
43651;DHT22;29247;50.944;5.382;2023-07-16T12:04:47;23.90;57.40
43651;DHT22;29247;50.944;5.382;2023-07-16T12:07:13;23.90;56.70
43651;DHT22;29247;50.944;5.382;2023-07-16T12:09:39;24.00;56.70
43651;DHT22;29247;50.944;5.382;2023-07-16T12:12:05;24.00;56.70
43651;DHT22;29247;50.944;5.382;2023-07-16T12:14:34;24.00;56.70
43651;DHT22;29247;50.944;5.382;2023-07-16T12:17:02;24.10;56.70
43651;DHT22;29247;50.944;5.382;2023-07-16T12:19:28;24.10;56.80
43651;DHT22;29247;50.944;5.382;2023-07-16T12:21:54;24.20;56.80
43651;DHT22;29247;50.944;5.382;2023-07-16T12:24:21;24.20;56.10
43651;DHT22;29247;50.944;5.382;2023-07-16T12:26:52;24.20;55.80
43651;DHT22;29247;50.944;5.382;2023-07-16T12:29:19;24.30;56.00
43651;DHT22;29247;50.944;5.382;2023-07-16T12:31:45;24.30;56.00
43651;DHT22;29247;50.944;5.382;2023-07-16T12:34:11;24.30;55.80
43651;DHT22;29247;50.944;5.382;2023-07-16T12:36:41;24.40;55.80
43651;DHT22;29247;50.944;5.382;2023-07-16T12:39:07;24.40;55.90
43651;DHT22;29247;50.944;5.382;2023-07-16T12:41:33;24.40;56.20
43651;DHT22;29247;50.944;5.382;2023-07-16T12:44:00;24.50;56.10
43651;DHT22;29247;50.944;5.382;2023-07-16T12:46:26;24.50;55.90
43651;DHT22;29247;50.944;5.382;2023-07-16T12:48:52;24.60;54.60
43651;DHT22;29247;50.944;5.382;2023-07-16T12:51:17;24.50;54.50
43651;DHT22;29247;50.944;5.382;2023-07-16T12:53:43;24.50;54.20
43651;DHT22;29247;50.944;5.382;2023-07-16T12:56:09;24.40;53.80
43651;DHT22;29247;50.944;5.382;2023-07-16T12:58:35;24.40;54.00
43651;DHT22;29247;50.944;5.382;2023-07-16T13:01:01;24.40;54.20
43651;DHT22;29247;50.944;5.382;2023-07-16T13:03:27;24.40;54.20
43651;DHT22;29247;50.944;5.382;2023-07-16T13:05:53;24.50;54.30
43651;DHT22;29247;50.944;5.382;2023-07-16T13:08:19;24.60;54.40
43651;DHT22;29247;50.944;5.382;2023-07-16T13:10:47;24.60;54.30
43651;DHT22;29247;50.944;5.382;2023-07-16T13:13:12;24.60;54.30
43651;DHT22;29247;50.944;5.382;2023-07-16T13:15:40;24.60;54.60
43651;DHT22;29247;50.944;5.382;2023-07-16T13:18:07;24.60;54.70
43651;DHT22;29247;50.944;5.382;2023-07-16T13:20:35;24.50;54.40
43651;DHT22;29247;50.944;5.382;2023-07-16T13:23:01;24.50;54.50
43651;DHT22;29247;50.944;5.382;2023-07-16T13:25:30;24.40;54.60
43651;DHT22;29247;50.944;5.382;2023-07-16T13:27:58;24.40;55.00
43651;DHT22;29247;50.944;5.382;2023-07-16T13:30:24;24.50;55.20
43651;DHT22;29247;50.944;5.382;2023-07-16T13:32:51;24.50;54.90
43651;DHT22;29247;50.944;5.382;2023-07-16T13:35:16;24.40;54.60
43651;DHT22;29247;50.944;5.382;2023-07-16T13:37:42;24.40;54.30
43651;DHT22;29247;50.944;5.382;2023-07-16T13:40:08;24.40;54.50
43651;DHT22;29247;50.944;5.382;2023-07-16T13:42:36;24.30;54.60
43651;DHT22;29247;50.944;5.382;2023-07-16T13:45:02;24.30;54.90
43651;DHT22;29247;50.944;5.382;2023-07-16T13:47:31;24.20;54.80
43651;DHT22;29247;50.944;5.382;2023-07-16T13:49:57;24.20;55.00
43651;DHT22;29247;50.944;5.382;2023-07-16T13:52:24;24.20;55.40
43651;DHT22;29247;50.944;5.382;2023-07-16T13:54:50;24.20;55.30
43651;DHT22;29247;50.944;5.382;2023-07-16T13:57:16;24.30;55.20
43651;DHT22;29247;50.944;5.382;2023-07-16T13:59:41;24.30;55.00
43651;DHT22;29247;50.944;5.382;2023-07-16T14:02:07;24.30;54.90
43651;DHT22;29247;50.944;5.382;2023-07-16T14:04:33;24.30;55.10
43651;DHT22;29247;50.944;5.382;2023-07-16T14:07:01;24.30;55.10
43651;DHT22;29247;50.944;5.382;2023-07-16T14:09:27;24.30;54.90
43651;DHT22;29247;50.944;5.382;2023-07-16T14:11:55;24.20;54.60
43651;DHT22;29247;50.944;5.382;2023-07-16T14:14:23;24.20;54.50
43651;DHT22;29247;50.944;5.382;2023-07-16T14:16:49;24.20;54.70
43651;DHT22;29247;50.944;5.382;2023-07-16T14:19:17;24.20;55.00
43651;DHT22;29247;50.944;5.382;2023-07-16T14:21:42;24.20;55.50
43651;DHT22;29247;50.944;5.382;2023-07-16T14:24:11;24.30;55.50
43651;DHT22;29247;50.944;5.382;2023-07-16T14:26:36;24.40;55.50
43651;DHT22;29247;50.944;5.382;2023-07-16T14:29:02;24.60;55.70
43651;DHT22;29247;50.944;5.382;2023-07-16T14:31:28;24.70;55.00
43651;DHT22;29247;50.944;5.382;2023-07-16T14:33:53;24.80;54.30
43651;DHT22;29247;50.944;5.382;2023-07-16T14:36:19;24.90;53.90
43651;DHT22;29247;50.944;5.382;2023-07-16T14:38:44;25.00;53.40
43651;DHT22;29247;50.944;5.382;2023-07-16T14:41:12;25.00;52.80
43651;DHT22;29247;50.944;5.382;2023-07-16T14:43:38;25.00;52.50
43651;DHT22;29247;50.944;5.382;2023-07-16T14:46:08;25.00;52.30
43651;DHT22;29247;50.944;5.382;2023-07-16T14:48:39;25.10;51.70
43651;DHT22;29247;50.944;5.382;2023-07-16T14:51:05;25.10;51.60
43651;DHT22;29247;50.944;5.382;2023-07-16T14:53:31;25.10;51.50
43651;DHT22;29247;50.944;5.382;2023-07-16T14:55:56;25.10;51.40
43651;DHT22;29247;50.944;5.382;2023-07-16T14:58:22;25.00;51.60
43651;DHT22;29247;50.944;5.382;2023-07-16T15:00:48;25.00;51.70
43651;DHT22;29247;50.944;5.382;2023-07-16T15:03:13;25.10;52.00
43651;DHT22;29247;50.944;5.382;2023-07-16T15:05:39;25.10;51.80
43651;DHT22;29247;50.944;5.382;2023-07-16T15:08:05;25.00;51.50
43651;DHT22;29247;50.944;5.382;2023-07-16T15:10:31;25.10;51.50
43651;DHT22;29247;50.944;5.382;2023-07-16T15:12:59;25.00;51.30
43651;DHT22;29247;50.944;5.382;2023-07-16T15:15:27;25.00;51.30
43651;DHT22;29247;50.944;5.382;2023-07-16T15:17:55;25.00;51.40
43651;DHT22;29247;50.944;5.382;2023-07-16T15:20:23;24.90;51.40
43651;DHT22;29247;50.944;5.382;2023-07-16T15:22:51;24.90;51.10
43651;DHT22;29247;50.944;5.382;2023-07-16T15:25:17;24.90;51.40
43651;DHT22;29247;50.944;5.382;2023-07-16T15:27:42;24.80;51.70
43651;DHT22;29247;50.944;5.382;2023-07-16T15:30:08;24.80;51.40
43651;DHT22;29247;50.944;5.382;2023-07-16T15:32:34;24.70;51.40
43651;DHT22;29247;50.944;5.382;2023-07-16T15:35:00;24.60;52.10
43651;DHT22;29247;50.944;5.382;2023-07-16T15:37:25;24.60;51.90
43651;DHT22;29247;50.944;5.382;2023-07-16T15:39:52;24.50;51.90
43651;DHT22;29247;50.944;5.382;2023-07-16T15:42:17;24.50;52.00
43651;DHT22;29247;50.944;5.382;2023-07-16T15:44:46;24.40;51.90